Time;durP1;ratioP1;P1;durP2;ratioP2;P2;SDS_P1;SDS_P2;PMS_P1;PMS_P2;Temp;Humidity;BMP_temperature;BMP_pressure;BME280_temperature;BME280_humidity;BME280_pressure;Samples;Min_cycle;Max_cycle;Signal;HPM_P1;HPM_P2
2021/03/27 00:00:58;;;;;;;13.23;10.90;;;10.30;99.90;;;;;;5007512;28;20246;-53
2021/03/27 00:03:34;;;;;;;15.53;11.20;;;10.30;99.90;;;;;;5004043;28;20641;-55
2021/03/27 00:06:05;;;;;;;14.03;9.93;;;10.30;99.90;;;;;;5023262;28;20583;-55
2021/03/27 00:08:51;;;;;;;11.57;10.30;;;10.30;99.90;;;;;;5030171;28;20673;-54
2021/03/27 00:11:29;;;;;;;13.40;10.00;;;10.30;99.90;;;;;;5045961;28;20297;-56
2021/03/27 00:14:02;;;;;;;13.73;10.20;;;10.30;99.90;;;;;;5031548;28;20641;-53
2021/03/27 00:16:36;;;;;;;12.17;10.77;;;10.30;99.90;;;;;;5031385;28;20245;-53
2021/03/27 00:19:08;;;;;;;13.73;10.60;;;10.30;99.90;;;;;;5029276;28;20623;-57
2021/03/27 00:21:44;;;;;;;13.17;11.10;;;10.20;99.90;;;;;;5031014;28;20693;-54
2021/03/27 00:24:19;;;;;;;14.83;10.37;;;10.20;99.90;;;;;;5031312;28;20292;-54
2021/03/27 00:26:55;;;;;;;14.37;10.33;;;10.20;99.90;;;;;;4991470;28;20270;-57
2021/03/27 00:29:30;;;;;;;14.57;10.53;;;10.10;99.90;;;;;;4977313;28;20286;-54
2021/03/27 00:32:04;;;;;;;12.07;10.00;;;10.10;99.90;;;;;;5000069;28;20397;-56
2021/03/27 00:34:47;;;;;;;11.80;10.40;;;10.10;99.90;;;;;;5003331;28;20273;-54
2021/03/27 00:37:19;;;;;;;15.10;10.60;;;10.00;99.90;;;;;;5011418;28;20266;-56
2021/03/27 00:39:52;;;;;;;11.90;10.43;;;10.00;99.90;;;;;;5025622;28;20650;-56
2021/03/27 00:42:25;;;;;;;13.77;11.17;;;10.00;99.90;;;;;;4992556;28;20236;-53
2021/03/27 00:44:58;;;;;;;11.63;10.00;;;10.00;99.90;;;;;;4991450;28;20299;-55
2021/03/27 00:47:43;;;;;;;11.90;10.37;;;10.00;99.90;;;;;;4990050;28;20297;-56
2021/03/27 00:50:19;;;;;;;13.63;10.80;;;10.00;99.90;;;;;;4990686;28;20720;-54
2021/03/27 00:52:50;;;;;;;14.27;10.63;;;9.90;99.90;;;;;;4991485;28;20242;-56
2021/03/27 00:55:24;;;;;;;17.10;11.13;;;9.90;99.90;;;;;;4980559;28;20240;-54
2021/03/27 00:57:57;;;;;;;15.00;10.60;;;9.90;99.90;;;;;;4995233;28;20592;-57
2021/03/27 01:00:35;;;;;;;14.80;10.93;;;9.80;99.90;;;;;;5019969;28;20345;-54
2021/03/27 01:03:37;;;;;;;13.40;11.00;;;9.80;99.90;;;;;;5007055;28;20235;-56
2021/03/27 01:06:10;;;;;;;12.93;10.87;;;9.80;99.90;;;;;;5027253;28;20242;-53
2021/03/27 01:09:00;;;;;;;16.47;10.23;;;9.80;99.90;;;;;;4999582;28;20231;-52
2021/03/27 01:11:57;;;;;;;14.13;10.40;;;9.80;99.90;;;;;;5007349;28;20518;-57
2021/03/27 01:14:31;;;;;;;12.20;10.10;;;9.80;99.90;;;;;;5005936;28;20244;-53
2021/03/27 01:17:02;;;;;;;12.50;10.23;;;9.80;99.90;;;;;;5005639;28;20230;-56
2021/03/27 01:19:37;;;;;;;11.73;9.33;;;9.80;99.90;;;;;;4988872;28;20239;-56
2021/03/27 01:22:09;;;;;;;12.33;9.50;;;9.80;99.90;;;;;;4990833;28;20873;-57
2021/03/27 01:24:37;;;;;;;11.20;9.53;;;9.70;99.90;;;;;;4992986;28;20235;-55
2021/03/27 01:27:17;;;;;;;12.80;9.90;;;9.70;99.90;;;;;;5001303;28;20591;-57
2021/03/27 01:29:53;;;;;;;12.47;10.10;;;9.70;99.90;;;;;;4993781;28;20723;-55
2021/03/27 01:32:24;;;;;;;10.26;7.79;;;9.70;99.90;;;;;;947938;28;10002508;-54
2021/03/27 01:35:02;;;;;;;13.50;8.97;;;9.60;99.90;;;;;;4991872;28;20240;-55
2021/03/27 01:37:50;;;;;;;11.40;9.10;;;9.60;99.90;;;;;;4980682;28;20230;-55
2021/03/27 01:40:29;;;;;;;12.47;8.83;;;9.60;99.90;;;;;;5004698;28;20235;-55
2021/03/27 01:43:20;;;;;;;12.03;9.23;;;9.60;99.90;;;;;;4990338;28;20240;-56
2021/03/27 01:46:20;;;;;;;11.13;8.80;;;9.50;99.90;;;;;;4990400;28;20247;-57
2021/03/27 01:49:03;;;;;;;11.67;9.00;;;9.50;99.90;;;;;;4971293;28;20719;-56
2021/03/27 01:51:56;;;;;;;12.13;8.37;;;9.50;99.90;;;;;;4981433;28;20282;-54
2021/03/27 01:54:29;;;;;;;12.23;8.53;;;9.60;99.90;;;;;;4984446;28;20251;-56
2021/03/27 01:57:19;;;;;;;11.97;8.47;;;9.60;99.90;;;;;;4980493;28;20312;-54
2021/03/27 01:59:51;;;;;;;10.87;8.27;;;9.60;99.90;;;;;;5000049;28;20326;-54
2021/03/27 02:02:26;;;;;;;10.77;7.97;;;9.60;99.90;;;;;;4996929;28;20691;-55
2021/03/27 02:05:03;;;;;;;10.67;8.07;;;9.70;99.90;;;;;;4994202;28;20235;-55
2021/03/27 02:07:48;;;;;;;9.93;7.83;;;9.60;99.90;;;;;;4989571;28;20262;-57
2021/03/27 02:10:27;;;;;;;10.97;7.70;;;9.70;99.90;;;;;;4989209;28;20290;-54
2021/03/27 02:13:00;;;;;;;10.17;7.70;;;9.70;99.90;;;;;;4998391;28;20242;-56
2021/03/27 02:15:41;;;;;;;10.77;8.10;;;9.70;99.90;;;;;;4989785;28;20333;-55
2021/03/27 02:18:19;;;;;;;10.77;7.37;;;9.70;99.90;;;;;;4989608;28;20338;-55
2021/03/27 02:21:33;;;;;;;11.13;7.63;;;9.80;99.90;;;;;;4985297;28;20329;-57
2021/03/27 02:24:19;;;;;;;9.83;7.27;;;9.80;99.90;;;;;;5001200;28;20260;-57
2021/03/27 02:26:58;;;;;;;11.50;6.90;;;9.80;99.90;;;;;;4997887;28;20556;-57
2021/03/27 02:29:58;;;;;;;12.00;7.43;;;9.70;99.90;;;;;;4999447;28;20230;-54
2021/03/27 02:32:43;;;;;;;12.70;7.80;;;9.80;99.90;;;;;;4995905;28;20297;-54
2021/03/27 02:35:21;;;;;;;9.37;7.60;;;9.80;99.90;;;;;;5020387;28;20717;-53
2021/03/27 02:38:07;;;;;;;8.03;6.97;;;9.80;99.90;;;;;;5028881;28;20240;-57
2021/03/27 02:40:38;;;;;;;9.37;7.27;;;9.80;99.90;;;;;;5019278;28;20234;-55
2021/03/27 02:43:12;;;;;;;9.43;7.70;;;9.80;99.90;;;;;;5008941;28;20247;-55
2021/03/27 02:45:50;;;;;;;8.87;6.93;;;9.90;99.90;;;;;;5008923;28;20246;-55
2021/03/27 02:48:23;;;;;;;9.17;7.30;;;9.90;99.90;;;;;;5007470;28;20234;-55
2021/03/27 02:51:07;;;;;;;8.83;6.97;;;10.00;99.90;;;;;;4988882;28;20244;-56
2021/03/27 02:53:45;;;;;;;8.43;6.90;;;10.00;99.90;;;;;;5002686;28;20237;-57
2021/03/27 02:56:28;;;;;;;8.60;6.63;;;10.00;99.90;;;;;;5008409;28;20238;-56
2021/03/27 02:59:16;;;;;;;8.47;6.63;;;10.00;99.90;;;;;;5007622;28;20237;-56
2021/03/27 03:01:53;;;;;;;8.60;6.87;;;10.00;99.90;;;;;;5003936;28;21334;-53
2021/03/27 03:04:37;;;;;;;9.00;7.03;;;10.10;99.90;;;;;;5024660;28;20249;-57
2021/03/27 03:07:10;;;;;;;8.80;6.83;;;10.10;99.90;;;;;;5028710;28;20230;-55
2021/03/27 03:09:47;;;;;;;10.23;7.47;;;10.10;99.90;;;;;;5027723;28;20311;-55
2021/03/27 03:12:21;;;;;;;12.07;7.17;;;10.10;99.90;;;;;;5027876;28;20242;-53
2021/03/27 03:14:58;;;;;;;8.97;6.20;;;10.10;99.90;;;;;;5028267;28;20233;-54
2021/03/27 03:17:36;;;;;;;8.07;6.83;;;10.20;99.90;;;;;;4996648;28;20252;-53
2021/03/27 03:20:19;;;;;;;8.87;6.60;;;10.10;99.90;;;;;;4998023;28;20242;-55
2021/03/27 03:22:57;;;;;;;8.67;6.63;;;10.00;99.90;;;;;;4996979;28;20236;-55
2021/03/27 03:25:30;;;;;;;10.63;6.90;;;9.90;99.90;;;;;;4996581;28;20249;-54
2021/03/27 03:28:23;;;;;;;9.20;6.73;;;9.80;99.90;;;;;;5003899;28;20762;-54
2021/03/27 03:31:04;;;;;;;9.83;7.50;;;9.70;99.90;;;;;;4986650;28;20267;-55
2021/03/27 03:34:10;;;;;;;11.23;7.43;;;9.60;99.90;;;;;;4983497;28;20292;-56
2021/03/27 03:36:50;;;;;;;7.97;6.33;;;9.50;99.90;;;;;;5027838;28;20237;-56
2021/03/27 03:39:37;;;;;;;5.23;4.70;;;9.30;99.90;;;;;;5019346;28;20302;-55
2021/03/27 03:42:34;;;;;;;5.10;4.70;;;9.10;99.90;;;;;;4988332;28;20227;-54
2021/03/27 03:45:10;;;;;;;5.77;4.50;;;9.00;99.90;;;;;;4982928;28;20623;-53
2021/03/27 03:47:49;;;;;;;6.00;5.33;;;9.00;99.90;;;;;;4995046;28;20316;-56
2021/03/27 03:50:29;;;;;;;5.97;5.37;;;8.90;99.90;;;;;;5004259;28;20328;-52
2021/03/27 03:53:29;;;;;;;6.83;5.60;;;8.90;99.90;;;;;;5007852;28;20238;-54
2021/03/27 03:56:06;;;;;;;6.17;5.57;;;8.80;99.90;;;;;;4988109;28;20247;-53
2021/03/27 03:58:53;;;;;;;5.30;4.83;;;8.80;99.90;;;;;;4988094;28;20325;-52
2021/03/27 04:01:41;;;;;;;4.07;3.63;;;8.70;99.90;;;;;;4993215;28;20307;-52
2021/03/27 04:04:17;;;;;;;4.40;3.60;;;8.70;99.90;;;;;;5016398;28;20624;-55
2021/03/27 04:06:52;;;;;;;3.77;3.00;;;8.50;99.90;;;;;;5027874;28;20700;-52
2021/03/27 04:09:25;;;;;;;2.87;2.63;;;8.40;99.90;;;;;;5027246;28;20296;-55
2021/03/27 04:12:11;;;;;;;2.90;2.17;;;8.30;99.90;;;;;;5026755;28;20290;-55
2021/03/27 04:15:16;;;;;;;2.87;2.30;;;8.30;99.90;;;;;;5026991;28;20279;-56
2021/03/27 04:17:55;;;;;;;2.80;2.10;;;8.20;99.90;;;;;;5009880;28;20260;-54
2021/03/27 04:20:52;;;;;;;2.10;1.90;;;8.10;99.90;;;;;;5003176;28;20229;-54
2021/03/27 04:23:34;;;;;;;2.47;2.27;;;8.10;99.90;;;;;;5000573;28;20241;-56
2021/03/27 04:26:28;;;;;;;2.50;2.30;;;8.00;99.90;;;;;;4995766;28;20258;-56
2021/03/27 04:29:18;;;;;;;3.07;2.03;;;8.10;99.90;;;;;;5006885;28;20236;-52
2021/03/27 04:32:03;;;;;;;2.33;2.13;;;8.10;99.90;;;;;;5005923;28;20439;-51
2021/03/27 04:34:36;;;;;;;1.97;1.40;;;8.00;99.90;;;;;;5014767;28;20233;-53
2021/03/27 04:37:09;;;;;;;2.00;1.30;;;7.90;99.90;;;;;;5017361;28;20325;-52
2021/03/27 04:39:46;;;;;;;1.97;1.57;;;7.80;99.90;;;;;;5006084;28;20264;-53
2021/03/27 04:42:23;;;;;;;2.27;1.50;;;7.70;99.90;;;;;;5007377;28;20312;-53
2021/03/27 04:45:05;;;;;;;2.43;1.67;;;7.70;99.90;;;;;;4993312;28;20737;-56
2021/03/27 04:47:38;;;;;;;2.67;1.90;;;7.70;99.90;;;;;;4987982;28;20230;-55
2021/03/27 04:50:22;;;;;;;2.37;2.10;;;7.60;99.90;;;;;;4996275;28;20238;-52
2021/03/27 04:52:57;;;;;;;2.13;2.03;;;7.50;99.90;;;;;;5011039;28;20299;-56
2021/03/27 04:55:35;;;;;;;2.20;2.10;;;7.50;99.90;;;;;;5010348;28;20704;-53
2021/03/27 04:58:22;;;;;;;2.37;2.13;;;7.60;99.90;;;;;;5010571;28;20615;-55
2021/03/27 05:01:02;;;;;;;2.47;2.07;;;7.50;99.90;;;;;;5009557;28;20303;-54
2021/03/27 05:03:35;;;;;;;2.33;2.10;;;7.40;99.90;;;;;;5010551;28;20270;-54
2021/03/27 05:06:13;;;;;;;2.27;1.80;;;7.40;99.90;;;;;;5010009;28;20256;-56
2021/03/27 05:09:06;;;;;;;1.70;1.60;;;7.40;99.90;;;;;;5009741;28;20252;-54
2021/03/27 05:11:53;;;;;;;1.90;1.70;;;7.30;99.90;;;;;;4970909;28;20261;-55
2021/03/27 05:15:06;;;;;;;1.60;1.50;;;7.30;99.90;;;;;;4993309;28;20242;-52
2021/03/27 05:18:04;;;;;;;2.47;1.73;;;7.30;99.90;;;;;;5008441;28;20565;-55
2021/03/27 05:20:37;;;;;;;2.57;2.00;;;7.30;99.90;;;;;;4977900;28;20241;-53
2021/03/27 05:23:13;;;;;;;1.77;1.67;;;7.30;99.90;;;;;;4979219;28;20269;-53
2021/03/27 05:25:59;;;;;;;2.00;1.80;;;7.30;99.90;;;;;;4981864;28;20245;-53
2021/03/27 05:29:30;;;;;;;2.63;1.70;;;7.30;99.90;;;;;;4987488;28;20245;-53
2021/03/27 05:32:19;;;;;;;2.73;1.80;;;7.20;99.90;;;;;;4940963;28;20233;-52
2021/03/27 05:34:52;;;;;;;2.87;2.20;;;7.30;99.90;;;;;;5011817;28;20246;-56
2021/03/27 05:37:33;;;;;;;2.80;2.20;;;7.20;99.90;;;;;;5024527;28;20241;-52
2021/03/27 05:40:47;;;;;;;4.00;2.00;;;7.20;99.90;;;;;;4969836;28;20254;-51
2021/03/27 05:43:56;;;;;;;2.20;2.00;;;7.20;99.90;;;;;;4994894;28;20307;-53
2021/03/27 05:47:11;;;;;;;4.03;2.50;;;7.30;99.90;;;;;;4997663;28;20241;-53
2021/03/27 05:50:44;;;;;;;2.67;2.30;;;7.20;99.90;;;;;;4970639;28;20272;-56
2021/03/27 05:53:42;;;;;;;3.03;2.47;;;7.10;99.90;;;;;;4971889;28;20234;-53
2021/03/27 05:57:11;;;;;;;2.50;2.30;;;7.00;99.90;;;;;;4969614;28;20243;-56
2021/03/27 06:00:23;;;;;;;3.07;2.47;;;7.10;99.90;;;;;;5000278;28;20241;-52
2021/03/27 06:03:26;;;;;;;2.80;2.60;;;7.10;99.90;;;;;;4996014;28;20685;-52
2021/03/27 06:06:45;;;;;;;3.77;3.47;;;7.10;99.90;;;;;;5001006;28;20237;-52
2021/03/27 06:09:43;;;;;;;3.60;2.97;;;7.00;99.90;;;;;;4981475;28;20249;-55
2021/03/27 06:12:37;;;;;;;4.40;3.33;;;7.10;99.90;;;;;;4976026;28;20327;-52
2021/03/27 06:15:50;;;;;;;4.47;3.50;;;7.10;99.90;;;;;;4996327;28;21202;-55
2021/03/27 06:18:53;;;;;;;3.73;3.30;;;7.00;99.90;;;;;;4949340;28;20249;-56
2021/03/27 06:21:34;;;;;;;3.87;3.40;;;7.10;99.90;;;;;;4967393;28;20248;-53
2021/03/27 06:24:38;;;;;;;4.47;3.80;;;7.10;99.90;;;;;;4968836;28;20238;-54
2021/03/27 06:27:27;;;;;;;4.63;4.20;;;7.10;99.90;;;;;;4971213;28;20242;-53
2021/03/27 06:30:29;;;;;;;4.33;3.77;;;7.10;99.90;;;;;;4981113;28;20565;-55
2021/03/27 06:33:46;;;;;;;5.53;4.53;;;7.10;99.90;;;;;;4985419;28;20237;-52
2021/03/27 06:36:53;;;;;;;5.10;4.37;;;7.10;99.90;;;;;;4978047;28;20325;-55
2021/03/27 06:40:09;;;;;;;5.70;4.70;;;7.10;99.90;;;;;;4935086;28;20310;-54
2021/03/27 06:43:03;;;;;;;5.17;4.63;;;7.00;99.90;;;;;;4961797;28;20274;-54
2021/03/27 06:45:52;;;;;;;5.83;4.40;;;7.00;99.90;;;;;;4985911;28;20339;-51
2021/03/27 06:49:21;;;;;;;5.83;5.10;;;7.00;99.90;;;;;;4986030;28;20599;-55
2021/03/27 06:52:51;;;;;;;7.97;4.90;;;7.00;99.90;;;;;;4981336;28;20311;-56
2021/03/27 06:56:25;;;;;;;5.13;3.37;;;6.90;99.90;;;;;;4988409;28;20697;-55
2021/03/27 06:59:48;;;;;;;4.17;2.70;;;6.60;99.90;;;;;;4932170;28;20746;-57
2021/03/27 07:03:18;;;;;;;3.47;2.40;;;6.50;99.90;;;;;;4973028;28;20245;-56
2021/03/27 07:06:34;;;;;;;4.47;2.27;;;6.40;99.90;;;;;;4966090;28;20249;-55
2021/03/27 07:10:05;;;;;;;3.30;2.40;;;6.30;99.90;;;;;;4992335;28;20332;-53
2021/03/27 07:13:07;;;;;;;3.10;2.40;;;6.30;99.90;;;;;;4991778;28;20274;-56
2021/03/27 07:16:16;;;;;;;3.27;2.10;;;6.40;99.90;;;;;;4993592;28;20318;-52
2021/03/27 07:19:47;;;;;;;5.93;2.60;;;6.40;99.90;;;;;;4993958;28;20320;-53
2021/03/27 07:22:50;;;;;;;4.03;2.17;;;6.50;99.90;;;;;;4992384;28;20237;-55
2021/03/27 07:25:44;;;;;;;2.83;2.20;;;6.70;99.90;;;;;;4983375;28;20347;-54
2021/03/27 07:28:44;;;;;;;4.40;2.40;;;6.70;99.90;;;;;;4986048;28;20295;-54
2021/03/27 07:31:34;;;;;;;3.00;2.30;;;6.80;99.90;;;;;;4991260;28;20303;-54
2021/03/27 07:34:36;;;;;;;4.70;2.50;;;6.90;99.90;;;;;;4995062;28;20245;-55
2021/03/27 07:37:28;;;;;;;4.67;3.20;;;6.90;99.90;;;;;;4992816;28;20295;-56
2021/03/27 07:40:17;;;;;;;3.87;3.20;;;6.90;99.90;;;;;;4993177;28;20253;-55
2021/03/27 07:42:59;;;;;;;7.23;3.87;;;7.10;99.90;;;;;;4991446;28;20280;-57
2021/03/27 07:45:51;;;;;;;4.40;3.47;;;7.40;99.90;;;;;;4994467;28;20236;-56
2021/03/27 07:48:52;;;;;;;6.77;3.70;;;7.80;99.90;;;;;;4994101;28;20238;-55
2021/03/27 07:51:38;;;;;;;7.83;5.00;;;8.10;99.90;;;;;;4984369;28;20334;-55
2021/03/27 07:54:38;;;;;;;5.97;4.80;;;8.20;99.90;;;;;;4994929;28;20244;-56
2021/03/27 07:57:53;;;;;;;9.63;5.97;;;8.20;99.90;;;;;;4981848;28;20327;-53
2021/03/27 08:00:43;;;;;;;7.63;5.53;;;8.20;99.90;;;;;;4993270;28;20307;-57
2021/03/27 08:03:45;;;;;;;8.87;5.80;;;8.30;99.90;;;;;;4971763;28;20269;-56
2021/03/27 08:06:29;;;;;;;9.47;6.13;;;8.30;99.90;;;;;;4983028;28;20240;-56
2021/03/27 08:09:37;;;;;;;9.50;6.27;;;8.40;99.90;;;;;;4964606;28;20238;-54
2021/03/27 08:12:56;;;;;;;7.17;6.37;;;8.50;99.90;;;;;;4969742;28;20693;-53
2021/03/27 08:15:42;;;;;;;12.47;6.77;;;8.90;99.90;;;;;;4983040;28;20233;-55
2021/03/27 08:19:02;;;;;;;9.40;6.50;;;8.80;99.90;;;;;;4985616;28;20748;-53
2021/03/27 08:21:37;;;;;;;15.50;7.95;;;8.70;99.90;;;;;;4982483;28;20794;-56
2021/03/27 08:24:31;;;;;;;11.33;6.47;;;8.60;99.90;;;;;;4987757;28;20251;-58
2021/03/27 08:27:34;;;;;;;10.00;5.47;;;8.50;99.90;;;;;;4986016;28;20237;-56
2021/03/27 08:31:23;;;;;;;9.20;5.40;;;8.50;99.90;;;;;;4975263;28;20248;-58
2021/03/27 08:34:31;;;;;;;10.77;6.40;;;8.50;99.90;;;;;;5003058;28;20324;-58
2021/03/27 08:37:24;;;;;;;10.63;5.03;;;8.50;99.90;;;;;;5003877;28;20287;-56
2021/03/27 08:40:46;;;;;;;8.90;5.77;;;8.50;99.90;;;;;;4988266;28;20329;-56
2021/03/27 08:44:04;;;;;;;9.07;4.83;;;8.50;99.90;;;;;;4965558;28;20238;-58
2021/03/27 08:47:12;;;;;;;7.97;5.13;;;8.40;99.90;;;;;;5008983;28;20330;-57
2021/03/27 08:50:23;;;;;;;6.90;4.80;;;8.20;99.90;;;;;;5009848;28;20260;-57
2021/03/27 08:53:35;;;;;;;7.77;4.80;;;8.20;99.90;;;;;;5010252;28;20751;-56
2021/03/27 08:56:52;;;;;;;10.20;5.27;;;8.20;99.90;;;;;;5013658;28;20232;-57
2021/03/27 09:00:14;;;;;;;10.43;4.50;;;8.40;99.90;;;;;;4997055;28;20237;-57
2021/03/27 09:02:57;;;;;;;6.53;4.13;;;8.90;99.90;;;;;;5010319;28;20782;-57
2021/03/27 09:06:11;;;;;;;7.97;4.70;;;9.10;99.90;;;;;;5010484;28;20272;-57
2021/03/27 09:08:46;;;;;;;6.17;4.37;;;9.00;99.90;;;;;;5015086;28;20340;-57
2021/03/27 09:11:32;;;;;;;9.30;4.60;;;8.90;99.90;;;;;;4998734;28;20262;-57
2021/03/27 09:14:42;;;;;;;8.93;4.80;;;8.80;99.90;;;;;;4993603;28;20238;-58
2021/03/27 09:17:46;;;;;;;7.33;4.53;;;8.60;99.90;;;;;;4990610;28;20320;-56
2021/03/27 09:21:15;;;;;;;6.60;4.63;;;8.40;99.90;;;;;;4989768;28;20697;-56
2021/03/27 09:23:54;;;;;;;9.03;4.73;;;8.30;99.90;;;;;;4961212;28;20272;-56
2021/03/27 09:26:51;;;;;;;6.63;4.50;;;8.10;99.90;;;;;;5009136;28;20273;-58
2021/03/27 09:30:05;;;;;;;5.47;3.77;;;7.80;99.90;;;;;;5008481;28;20740;-57
2021/03/27 09:32:53;;;;;;;5.20;3.63;;;7.70;99.90;;;;;;4929954;28;20656;-57
2021/03/27 09:35:58;;;;;;;5.87;3.63;;;7.60;99.90;;;;;;4980407;28;20333;-58
2021/03/27 09:38:39;;;;;;;4.90;3.50;;;7.60;99.90;;;;;;5000762;28;20647;-55
2021/03/27 09:41:49;;;;;;;4.03;3.17;;;7.50;99.90;;;;;;5006884;28;20241;-55
2021/03/27 09:44:43;;;;;;;3.53;3.20;;;7.50;99.90;;;;;;5002867;28;20241;-57
2021/03/27 09:48:16;;;;;;;3.97;3.57;;;7.50;99.90;;;;;;4990754;28;20245;-54
2021/03/27 09:50:53;;;;;;;4.40;3.33;;;7.60;99.90;;;;;;5002576;28;20665;-57
2021/03/27 09:53:55;;;;;;;4.53;3.73;;;7.60;99.90;;;;;;4984566;28;20237;-56
2021/03/27 09:56:34;;;;;;;6.83;4.30;;;7.80;99.90;;;;;;4980762;28;20240;-53
2021/03/27 09:59:19;;;;;;;5.60;3.93;;;7.90;99.90;;;;;;4981570;28;20329;-57
2021/03/27 10:01:53;;;;;;;5.43;3.87;;;7.90;99.90;;;;;;4996913;28;20237;-57
2021/03/27 10:04:48;;;;;;;4.97;3.70;;;8.10;99.90;;;;;;5008621;28;20241;-57
2021/03/27 10:07:51;;;;;;;4.40;3.23;;;8.00;99.90;;;;;;4999358;28;20280;-53
2021/03/27 10:10:49;;;;;;;4.87;2.83;;;7.90;99.90;;;;;;4997016;28;20248;-56
2021/03/27 10:13:49;;;;;;;4.70;3.03;;;7.70;99.90;;;;;;4988272;28;20615;-56
2021/03/27 10:16:23;;;;;;;3.53;2.47;;;7.50;99.90;;;;;;4986706;28;20636;-53
2021/03/27 10:19:00;;;;;;;3.73;2.60;;;7.40;99.90;;;;;;4996014;28;20244;-56
2021/03/27 10:21:40;;;;;;;3.90;2.70;;;7.40;99.90;;;;;;4993677;28;20245;-57
2021/03/27 10:24:24;;;;;;;6.63;2.80;;;7.50;99.90;;;;;;4992823;28;20632;-57
2021/03/27 10:27:04;;;;;;;5.60;3.00;;;7.90;99.90;;;;;;4978859;28;20238;-57
2021/03/27 10:29:39;;;;;;;4.93;3.00;;;8.00;99.90;;;;;;4974013;28;20237;-57
2021/03/27 10:32:56;;;;;;;4.43;2.57;;;8.10;99.90;;;;;;4976852;28;20285;-58
2021/03/27 10:36:19;;;;;;;4.53;2.70;;;8.10;99.90;;;;;;4986149;28;20248;-56
2021/03/27 10:39:31;;;;;;;4.17;2.10;;;8.00;99.90;;;;;;4990000;28;20595;-57
2021/03/27 10:42:32;;;;;;;6.30;2.20;;;7.90;99.90;;;;;;4986564;28;20248;-56
2021/03/27 10:45:37;;;;;;;5.67;2.10;;;7.80;99.90;;;;;;4992041;28;20855;-57
2021/03/27 10:48:52;;;;;;;4.70;1.80;;;7.80;99.90;;;;;;4975296;28;20253;-56
2021/03/27 10:51:41;;;;;;;5.60;2.23;;;8.00;99.90;;;;;;4974926;28;20241;-57
2021/03/27 10:54:42;;;;;;;6.43;2.40;;;8.30;99.90;;;;;;4985263;28;20691;-57
2021/03/27 10:57:29;;;;;;;7.83;2.70;;;8.80;99.90;;;;;;4984392;28;21129;-56
2021/03/27 11:00:21;;;;;;;7.23;3.07;;;9.20;99.90;;;;;;4979786;28;20272;-57
2021/03/27 11:03:13;;;;;;;8.20;2.73;;;10.00;99.90;;;;;;4977014;28;20372;-57
2021/03/27 11:06:15;;;;;;;7.10;2.47;;;10.50;99.90;;;;;;4976226;28;20757;-58
2021/03/27 11:09:29;;;;;;;8.43;2.70;;;10.60;99.90;;;;;;4986692;28;21245;-57
2021/03/27 11:12:37;;;;;;;8.10;2.37;;;10.50;99.90;;;;;;4975473;28;20368;-57
2021/03/27 11:15:46;;;;;;;9.03;3.13;;;10.30;99.90;;;;;;4983862;28;20312;-57
2021/03/27 11:19:01;;;;;;;8.17;2.43;;;10.10;99.90;;;;;;4975930;28;20274;-58
2021/03/27 11:22:03;;;;;;;5.50;2.43;;;9.70;99.90;;;;;;4972641;28;20297;-56
2021/03/27 11:25:04;;;;;;;6.50;1.53;;;9.30;99.90;;;;;;4986787;28;21513;-57
2021/03/27 11:27:59;;;;;;;7.20;1.90;;;8.50;99.90;;;;;;4988122;28;20230;-58
2021/03/27 11:30:39;;;;;;;5.10;1.60;;;7.30;99.90;;;;;;4973407;28;20340;-57
2021/03/27 11:33:26;;;;;;;5.87;1.77;;;6.90;99.90;;;;;;4995714;28;20816;-57
2021/03/27 11:36:05;;;;;;;5.30;1.60;;;6.70;99.90;;;;;;4995020;28;20240;-57
2021/03/27 11:38:39;;;;;;;6.93;2.27;;;6.60;99.90;;;;;;4995752;28;20268;-55
2021/03/27 11:41:17;;;;;;;7.97;1.77;;;6.80;99.90;;;;;;4992230;28;20324;-57
2021/03/27 11:43:59;;;;;;;5.83;1.60;;;6.90;99.90;;;;;;4996894;28;20640;-56
2021/03/27 11:46:32;;;;;;;10.00;1.90;;;6.90;99.90;;;;;;4995972;28;20724;-56
2021/03/27 11:49:09;;;;;;;10.03;2.70;;;7.00;99.90;;;;;;4993731;28;20280;-56
2021/03/27 11:51:44;;;;;;;10.57;2.30;;;7.10;99.90;;;;;;4995416;28;20240;-57
2021/03/27 11:54:31;;;;;;;7.47;2.03;;;7.10;99.90;;;;;;4998055;28;20560;-57
2021/03/27 11:57:26;;;;;;;9.13;1.77;;;7.10;99.90;;;;;;4999939;28;20738;-56
2021/03/27 12:03:21;;;;;;;5.70;2.47;;;7.10;99.90;;;;;;4948386;28;21084;-56
2021/03/27 12:05:53;;;;;;;7.27;2.53;;;7.20;99.90;;;;;;4993756;28;20322;-57
2021/03/27 12:08:30;;;;;;;10.37;2.17;;;7.30;99.90;;;;;;4980243;28;20323;-57
2021/03/27 12:11:09;;;;;;;13.10;2.27;;;7.50;99.90;;;;;;4996724;28;20723;-56
2021/03/27 12:13:45;;;;;;;9.47;2.57;;;7.80;99.90;;;;;;4999306;28;20405;-57
2021/03/27 12:16:24;;;;;;;11.50;2.50;;;8.10;99.90;;;;;;4992351;28;20260;-57
2021/03/27 12:19:11;;;;;;;9.97;2.70;;;8.40;99.90;;;;;;4980648;28;20648;-58
2021/03/27 12:21:46;;;;;;;8.67;2.73;;;8.70;99.90;;;;;;4999352;28;20261;-55
2021/03/27 12:24:33;;;;;;;8.23;2.43;;;8.90;99.90;;;;;;4993603;28;20306;-55
2021/03/27 12:27:07;;;;;;;11.70;3.20;;;9.00;99.90;;;;;;4994277;28;20252;-57
2021/03/27 12:29:42;;;;;;;14.77;3.13;;;9.00;99.90;;;;;;4991355;28;20247;-57
2021/03/27 12:32:48;;;;;;;16.40;3.73;;;9.00;99.90;;;;;;4992141;28;20245;-58
2021/03/27 12:35:29;;;;;;;9.70;3.20;;;8.90;99.90;;;;;;4997546;28;20368;-58
2021/03/27 12:38:22;;;;;;;10.07;3.23;;;8.90;99.90;;;;;;4991054;28;20268;-56
2021/03/27 12:41:04;;;;;;;11.80;3.90;;;8.80;99.90;;;;;;4977352;28;20713;-57
2021/03/27 12:43:34;;;;;;;9.03;3.00;;;8.80;99.90;;;;;;4998063;28;20419;-57
2021/03/27 12:46:16;;;;;;;12.40;3.23;;;8.80;99.90;;;;;;4994439;28;21364;-57
2021/03/27 12:49:07;;;;;;;13.53;3.37;;;8.80;99.90;;;;;;4993673;28;20253;-57
2021/03/27 12:51:43;;;;;;;10.83;2.90;;;9.00;99.90;;;;;;4987167;28;20262;-57
2021/03/27 12:54:32;;;;;;;9.20;2.80;;;9.20;99.90;;;;;;4985521;28;20743;-57
2021/03/27 12:57:49;;;;;;;13.43;3.67;;;9.40;99.90;;;;;;4992364;28;20250;-54
2021/03/27 13:00:47;;;;;;;14.40;3.97;;;9.50;99.90;;;;;;4983909;28;20236;-56
2021/03/27 13:03:39;;;;;;;12.80;3.63;;;9.60;99.90;;;;;;4996729;28;20319;-55
2021/03/27 13:06:36;;;;;;;14.23;3.47;;;9.50;99.90;;;;;;4998049;28;20244;-58
2021/03/27 13:09:51;;;;;;;12.70;3.40;;;9.40;99.90;;;;;;4995924;28;20377;-54
2021/03/27 13:12:23;;;;;;;9.97;3.47;;;9.50;99.90;;;;;;4997063;28;20238;-58
2021/03/27 13:15:32;;;;;;;13.77;3.10;;;9.40;99.90;;;;;;4997776;28;20241;-58
2021/03/27 13:18:40;;;;;;;11.63;2.90;;;9.60;99.90;;;;;;4997457;28;20585;-58
2021/03/27 13:21:30;;;;;;;9.87;2.80;;;9.70;99.90;;;;;;4996325;28;20257;-58
2021/03/27 13:24:13;;;;;;;11.43;3.03;;;10.00;99.90;;;;;;4997901;28;20247;-58
2021/03/27 13:26:43;;;;;;;13.90;3.20;;;10.00;99.90;;;;;;4991179;28;20276;-58
2021/03/27 13:29:35;;;;;;;8.63;2.90;;;10.00;99.90;;;;;;4984502;28;20238;-57
2021/03/27 13:32:16;;;;;;;11.43;3.07;;;10.00;99.90;;;;;;4989238;28;20245;-56
2021/03/27 13:34:54;;;;;;;12.13;2.97;;;9.80;99.90;;;;;;4988487;28;20381;-57
2021/03/27 13:37:25;;;;;;;11.73;2.67;;;9.40;99.90;;;;;;4982630;28;20243;-58
2021/03/27 13:40:00;;;;;;;12.33;3.03;;;9.10;99.90;;;;;;4987542;28;20252;-57
2021/03/27 13:42:37;;;;;;;10.03;2.67;;;8.70;99.90;;;;;;4959463;28;20282;-55
2021/03/27 13:45:29;;;;;;;14.87;3.30;;;8.50;99.90;;;;;;4964418;28;21283;-58
2021/03/27 13:48:11;;;;;;;8.53;2.73;;;8.40;99.90;;;;;;4978714;28;20334;-56
2021/03/27 13:50:58;;;;;;;15.00;2.97;;;8.30;99.90;;;;;;4976527;28;20274;-57
2021/03/27 13:53:44;;;;;;;13.00;3.10;;;8.20;99.90;;;;;;4983373;28;20261;-58
2021/03/27 13:56:39;;;;;;;11.50;2.87;;;8.10;99.90;;;;;;4997778;28;20241;-57
2021/03/27 13:59:36;;;;;;;10.00;3.53;;;8.00;99.90;;;;;;4994135;28;20333;-58
2021/03/27 14:02:58;;;;;;;10.63;2.77;;;8.00;99.90;;;;;;4990345;28;20331;-55
2021/03/27 14:05:44;;;;;;;12.63;3.30;;;8.10;99.90;;;;;;4996319;28;20238;-56
2021/03/27 14:08:36;;;;;;;9.73;2.77;;;8.30;99.90;;;;;;4995065;28;20695;-54
2021/03/27 14:11:10;;;;;;;9.40;2.70;;;8.40;99.90;;;;;;4994717;28;20331;-56
2021/03/27 14:13:44;;;;;;;11.03;2.57;;;8.70;99.90;;;;;;4997459;28;20799;-57
2021/03/27 14:16:29;;;;;;;10.80;2.80;;;8.80;99.90;;;;;;4996912;28;20241;-58
2021/03/27 14:19:10;;;;;;;12.30;3.10;;;8.70;99.90;;;;;;4995725;28;20711;-58
2021/03/27 14:21:55;;;;;;;10.00;2.87;;;8.70;99.90;;;;;;4985086;28;20295;-57
2021/03/27 14:24:57;;;;;;;11.07;2.97;;;8.50;99.90;;;;;;4995436;28;20240;-57
2021/03/27 14:27:37;;;;;;;10.73;2.50;;;8.50;99.90;;;;;;4985644;28;20323;-57
2021/03/27 14:30:50;;;;;;;11.93;3.20;;;8.40;99.90;;;;;;4983633;28;20241;-58
2021/03/27 14:33:41;;;;;;;13.30;2.60;;;8.30;99.90;;;;;;4982008;28;20241;-57
2021/03/27 14:36:15;;;;;;;11.70;2.50;;;8.20;99.90;;;;;;4996507;28;20340;-57
2021/03/27 14:39:41;;;;;;;10.77;2.40;;;8.20;99.90;;;;;;4996071;28;20723;-57
2021/03/27 14:42:41;;;;;;;14.63;3.17;;;8.20;99.90;;;;;;4985680;28;20319;-57
2021/03/27 14:45:26;;;;;;;11.10;2.83;;;8.20;99.90;;;;;;4992833;28;20239;-58
2021/03/27 14:48:23;;;;;;;11.73;2.60;;;8.10;99.90;;;;;;4967749;28;20250;-55
2021/03/27 14:51:03;;;;;;;11.23;2.63;;;8.30;99.90;;;;;;4963169;28;20234;-57
2021/03/27 14:53:41;;;;;;;16.47;2.63;;;8.40;99.90;;;;;;4961196;28;20245;-56